sensor_id;sensor_type;location;lat;lon;timestamp;P1;durP1;ratioP1;P2;durP2;ratioP2
16450;SDS011;12243;42.708;23.310;2022-11-18T00:00:04;40.03;;;30.23;;
16450;SDS011;12243;42.708;23.310;2022-11-18T00:02:32;43.30;;;29.03;;
16450;SDS011;12243;42.708;23.310;2022-11-18T00:04:58;38.87;;;28.53;;
16450;SDS011;12243;42.708;23.310;2022-11-18T00:07:25;37.40;;;27.33;;
16450;SDS011;12243;42.708;23.310;2022-11-18T00:09:52;36.30;;;28.07;;
16450;SDS011;12243;42.708;23.310;2022-11-18T00:12:21;32.40;;;24.93;;
16450;SDS011;12243;42.708;23.310;2022-11-18T00:15:05;35.37;;;27.23;;
16450;SDS011;12243;42.708;23.310;2022-11-18T00:17:32;40.20;;;29.20;;
16450;SDS011;12243;42.708;23.310;2022-11-18T00:19:59;43.03;;;29.67;;
16450;SDS011;12243;42.708;23.310;2022-11-18T00:22:26;40.80;;;27.07;;
16450;SDS011;12243;42.708;23.310;2022-11-18T00:24:53;43.87;;;29.03;;
16450;SDS011;12243;42.708;23.310;2022-11-18T00:27:21;42.67;;;30.50;;
16450;SDS011;12243;42.708;23.310;2022-11-18T00:29:48;39.50;;;31.03;;
16450;SDS011;12243;42.708;23.310;2022-11-18T00:32:15;50.40;;;34.60;;
16450;SDS011;12243;42.708;23.310;2022-11-18T00:34:41;48.13;;;33.93;;
16450;SDS011;12243;42.708;23.310;2022-11-18T00:37:08;55.57;;;37.10;;
16450;SDS011;12243;42.708;23.310;2022-11-18T00:39:35;56.30;;;38.70;;
16450;SDS011;12243;42.708;23.310;2022-11-18T00:42:02;57.13;;;37.37;;
16450;SDS011;12243;42.708;23.310;2022-11-18T00:44:48;53.20;;;34.90;;
16450;SDS011;12243;42.708;23.310;2022-11-18T00:47:15;51.10;;;35.30;;
16450;SDS011;12243;42.708;23.310;2022-11-18T00:49:42;49.10;;;34.00;;
16450;SDS011;12243;42.708;23.310;2022-11-18T00:52:09;53.47;;;34.03;;
16450;SDS011;12243;42.708;23.310;2022-11-18T00:54:35;48.30;;;32.80;;
16450;SDS011;12243;42.708;23.310;2022-11-18T00:57:02;52.10;;;31.70;;
16450;SDS011;12243;42.708;23.310;2022-11-18T00:59:29;48.97;;;35.10;;
16450;SDS011;12243;42.708;23.310;2022-11-18T01:01:57;45.10;;;33.30;;
16450;SDS011;12243;42.708;23.310;2022-11-18T01:04:25;46.77;;;32.60;;
16450;SDS011;12243;42.708;23.310;2022-11-18T01:06:51;45.70;;;33.10;;
16450;SDS011;12243;42.708;23.310;2022-11-18T01:09:19;43.63;;;31.23;;
16450;SDS011;12243;42.708;23.310;2022-11-18T01:11:45;47.53;;;32.20;;
16450;SDS011;12243;42.708;23.310;2022-11-18T01:14:29;42.43;;;30.17;;
16450;SDS011;12243;42.708;23.310;2022-11-18T01:16:58;46.77;;;30.87;;
16450;SDS011;12243;42.708;23.310;2022-11-18T01:19:25;46.90;;;33.03;;
16450;SDS011;12243;42.708;23.310;2022-11-18T01:21:51;41.80;;;29.83;;
16450;SDS011;12243;42.708;23.310;2022-11-18T01:24:20;49.53;;;31.50;;
16450;SDS011;12243;42.708;23.310;2022-11-18T01:26:47;48.47;;;34.40;;
16450;SDS011;12243;42.708;23.310;2022-11-18T01:29:14;47.23;;;33.10;;
16450;SDS011;12243;42.708;23.310;2022-11-18T01:31:41;49.17;;;34.70;;
16450;SDS011;12243;42.708;23.310;2022-11-18T01:34:09;50.57;;;35.00;;
16450;SDS011;12243;42.708;23.310;2022-11-18T01:36:37;53.93;;;36.77;;
16450;SDS011;12243;42.708;23.310;2022-11-18T01:39:04;55.40;;;37.20;;
16450;SDS011;12243;42.708;23.310;2022-11-18T01:41:31;56.40;;;36.33;;
16450;SDS011;12243;42.708;23.310;2022-11-18T01:43:58;58.73;;;39.43;;
16450;SDS011;12243;42.708;23.310;2022-11-18T01:46:27;55.83;;;37.20;;
16450;SDS011;12243;42.708;23.310;2022-11-18T01:48:57;57.13;;;35.67;;
16450;SDS011;12243;42.708;23.310;2022-11-18T01:51:29;53.50;;;33.90;;
16450;SDS011;12243;42.708;23.310;2022-11-18T01:54:00;48.37;;;34.70;;
16450;SDS011;12243;42.708;23.310;2022-11-18T01:56:31;49.80;;;32.30;;
16450;SDS011;12243;42.708;23.310;2022-11-18T01:59:06;49.37;;;32.10;;
16450;SDS011;12243;42.708;23.310;2022-11-18T02:01:36;46.30;;;30.70;;
16450;SDS011;12243;42.708;23.310;2022-11-18T02:04:03;48.50;;;30.17;;
16450;SDS011;12243;42.708;23.310;2022-11-18T02:06:32;38.87;;;26.00;;
16450;SDS011;12243;42.708;23.310;2022-11-18T02:08:59;42.33;;;27.83;;
16450;SDS011;12243;42.708;23.310;2022-11-18T02:11:27;43.23;;;26.37;;
16450;SDS011;12243;42.708;23.310;2022-11-18T02:14:11;28.47;;;21.03;;
16450;SDS011;12243;42.708;23.310;2022-11-18T02:16:41;29.90;;;21.23;;
16450;SDS011;12243;42.708;23.310;2022-11-18T02:22:28;23.67;;;18.37;;
16450;SDS011;12243;42.708;23.310;2022-11-18T02:25:12;25.67;;;19.80;;
16450;SDS011;12243;42.708;23.310;2022-11-18T02:27:57;23.53;;;18.43;;
16450;SDS011;12243;42.708;23.310;2022-11-18T02:30:47;26.87;;;19.77;;
16450;SDS011;12243;42.708;23.310;2022-11-18T02:33:20;30.17;;;21.07;;
16450;SDS011;12243;42.708;23.310;2022-11-18T02:35:53;24.70;;;19.00;;
16450;SDS011;12243;42.708;23.310;2022-11-18T02:38:23;24.20;;;19.87;;
16450;SDS011;12243;42.708;23.310;2022-11-18T02:40:54;25.37;;;19.57;;
16450;SDS011;12243;42.708;23.310;2022-11-18T02:43:25;24.93;;;19.20;;
16450;SDS011;12243;42.708;23.310;2022-11-18T02:46:00;27.90;;;19.57;;
16450;SDS011;12243;42.708;23.310;2022-11-18T02:48:31;23.43;;;18.67;;
16450;SDS011;12243;42.708;23.310;2022-11-18T02:51:00;21.70;;;18.30;;
16450;SDS011;12243;42.708;23.310;2022-11-18T02:53:30;22.67;;;18.37;;
16450;SDS011;12243;42.708;23.310;2022-11-18T02:55:59;23.93;;;18.37;;
16450;SDS011;12243;42.708;23.310;2022-11-18T02:58:27;24.03;;;18.73;;
16450;SDS011;12243;42.708;23.310;2022-11-18T03:00:55;22.97;;;18.70;;
16450;SDS011;12243;42.708;23.310;2022-11-18T03:03:25;29.00;;;21.87;;
16450;SDS011;12243;42.708;23.310;2022-11-18T03:05:57;29.60;;;21.73;;
16450;SDS011;12243;42.708;23.310;2022-11-18T03:08:31;25.67;;;18.83;;
16450;SDS011;12243;42.708;23.310;2022-11-18T03:11:06;23.23;;;17.13;;
16450;SDS011;12243;42.708;23.310;2022-11-18T03:13:42;27.57;;;17.10;;
16450;SDS011;12243;42.708;23.310;2022-11-18T03:16:17;23.33;;;17.07;;
16450;SDS011;12243;42.708;23.310;2022-11-18T03:18:53;26.20;;;17.30;;
16450;SDS011;12243;42.708;23.310;2022-11-18T03:21:29;42.90;;;17.73;;
16450;SDS011;12243;42.708;23.310;2022-11-18T03:24:02;29.90;;;17.73;;
16450;SDS011;12243;42.708;23.310;2022-11-18T03:26:33;34.27;;;19.20;;
16450;SDS011;12243;42.708;23.310;2022-11-18T03:29:04;29.43;;;18.33;;
16450;SDS011;12243;42.708;23.310;2022-11-18T03:31:37;35.13;;;18.90;;
16450;SDS011;12243;42.708;23.310;2022-11-18T03:34:09;33.87;;;19.83;;
16450;SDS011;12243;42.708;23.310;2022-11-18T03:36:40;38.33;;;19.67;;
16450;SDS011;12243;42.708;23.310;2022-11-18T03:39:11;54.97;;;22.93;;
16450;SDS011;12243;42.708;23.310;2022-11-18T03:41:43;31.97;;;20.57;;
16450;SDS011;12243;42.708;23.310;2022-11-18T03:44:16;111.10;;;21.93;;
16450;SDS011;12243;42.708;23.310;2022-11-18T03:46:46;37.70;;;19.83;;
16450;SDS011;12243;42.708;23.310;2022-11-18T03:49:21;41.60;;;21.23;;
16450;SDS011;12243;42.708;23.310;2022-11-18T03:51:55;78.03;;;22.47;;
16450;SDS011;12243;42.708;23.310;2022-11-18T03:54:26;37.87;;;21.07;;
16450;SDS011;12243;42.708;23.310;2022-11-18T03:56:57;90.77;;;23.67;;
16450;SDS011;12243;42.708;23.310;2022-11-18T03:59:29;39.67;;;23.00;;
16450;SDS011;12243;42.708;23.310;2022-11-18T04:02:01;74.97;;;24.30;;
16450;SDS011;12243;42.708;23.310;2022-11-18T04:04:33;82.83;;;22.80;;
16450;SDS011;12243;42.708;23.310;2022-11-18T04:07:01;135.80;;;24.27;;
16450;SDS011;12243;42.708;23.310;2022-11-18T04:09:35;127.97;;;26.00;;
16450;SDS011;12243;42.708;23.310;2022-11-18T04:12:09;134.33;;;25.60;;
16450;SDS011;12243;42.708;23.310;2022-11-18T04:14:39;88.37;;;24.30;;
16450;SDS011;12243;42.708;23.310;2022-11-18T04:17:08;55.33;;;24.03;;
16450;SDS011;12243;42.708;23.310;2022-11-18T04:19:39;51.33;;;24.53;;
16450;SDS011;12243;42.708;23.310;2022-11-18T04:22:06;106.70;;;28.00;;
16450;SDS011;12243;42.708;23.310;2022-11-18T04:24:34;52.13;;;24.67;;
16450;SDS011;12243;42.708;23.310;2022-11-18T04:27:02;49.03;;;25.80;;
16450;SDS011;12243;42.708;23.310;2022-11-18T04:29:29;50.57;;;27.00;;
16450;SDS011;12243;42.708;23.310;2022-11-18T04:31:57;58.83;;;26.73;;
16450;SDS011;12243;42.708;23.310;2022-11-18T04:34:24;55.97;;;26.40;;
16450;SDS011;12243;42.708;23.310;2022-11-18T04:36:52;66.57;;;29.40;;
16450;SDS011;12243;42.708;23.310;2022-11-18T04:39:19;107.10;;;27.17;;
16450;SDS011;12243;42.708;23.310;2022-11-18T04:41:47;86.07;;;27.97;;
16450;SDS011;12243;42.708;23.310;2022-11-18T04:44:22;76.93;;;28.30;;
16450;SDS011;12243;42.708;23.310;2022-11-18T04:46:50;69.97;;;27.73;;
16450;SDS011;12243;42.708;23.310;2022-11-18T04:49:19;97.07;;;30.43;;
16450;SDS011;12243;42.708;23.310;2022-11-18T04:51:46;65.67;;;26.83;;
16450;SDS011;12243;42.708;23.310;2022-11-18T04:54:15;92.83;;;33.00;;
16450;SDS011;12243;42.708;23.310;2022-11-18T04:56:42;72.80;;;31.03;;
16450;SDS011;12243;42.708;23.310;2022-11-18T04:59:10;178.90;;;32.90;;
16450;SDS011;12243;42.708;23.310;2022-11-18T05:01:38;195.53;;;36.20;;
16450;SDS011;12243;42.708;23.310;2022-11-18T05:04:06;95.60;;;31.80;;
16450;SDS011;12243;42.708;23.310;2022-11-18T05:06:33;88.90;;;30.70;;
16450;SDS011;12243;42.708;23.310;2022-11-18T05:09:00;85.53;;;33.40;;
16450;SDS011;12243;42.708;23.310;2022-11-18T05:11:29;170.33;;;37.80;;
16450;SDS011;12243;42.708;23.310;2022-11-18T05:14:13;63.77;;;32.57;;
16450;SDS011;12243;42.708;23.310;2022-11-18T05:16:41;91.03;;;36.50;;
16450;SDS011;12243;42.708;23.310;2022-11-18T05:19:09;69.83;;;33.07;;
16450;SDS011;12243;42.708;23.310;2022-11-18T05:21:36;99.03;;;35.80;;
16450;SDS011;12243;42.708;23.310;2022-11-18T05:24:04;90.93;;;32.50;;
16450;SDS011;12243;42.708;23.310;2022-11-18T05:26:32;68.77;;;33.57;;
16450;SDS011;12243;42.708;23.310;2022-11-18T05:28:59;55.20;;;34.80;;
16450;SDS011;12243;42.708;23.310;2022-11-18T05:31:26;90.53;;;36.23;;
16450;SDS011;12243;42.708;23.310;2022-11-18T05:33:53;88.40;;;33.47;;
16450;SDS011;12243;42.708;23.310;2022-11-18T05:36:20;95.20;;;35.10;;
16450;SDS011;12243;42.708;23.310;2022-11-18T05:38:48;196.27;;;38.97;;
16450;SDS011;12243;42.708;23.310;2022-11-18T05:41:15;161.70;;;33.77;;
16450;SDS011;12243;42.708;23.310;2022-11-18T05:43:57;147.83;;;31.53;;
16450;SDS011;12243;42.708;23.310;2022-11-18T05:46:24;62.67;;;31.63;;
16450;SDS011;12243;42.708;23.310;2022-11-18T05:48:51;105.23;;;34.27;;
16450;SDS011;12243;42.708;23.310;2022-11-18T05:51:18;228.30;;;38.30;;
16450;SDS011;12243;42.708;23.310;2022-11-18T05:53:45;115.63;;;36.53;;
16450;SDS011;12243;42.708;23.310;2022-11-18T05:56:15;100.33;;;35.07;;
16450;SDS011;12243;42.708;23.310;2022-11-18T05:58:46;75.37;;;32.00;;
16450;SDS011;12243;42.708;23.310;2022-11-18T06:01:15;92.03;;;33.50;;
16450;SDS011;12243;42.708;23.310;2022-11-18T06:03:46;121.63;;;30.23;;
16450;SDS011;12243;42.708;23.310;2022-11-18T06:06:14;205.13;;;32.40;;
16450;SDS011;12243;42.708;23.310;2022-11-18T06:08:45;107.60;;;29.63;;
16450;SDS011;12243;42.708;23.310;2022-11-18T06:11:14;166.37;;;29.77;;
16450;SDS011;12243;42.708;23.310;2022-11-18T06:13:44;172.37;;;27.93;;
16450;SDS011;12243;42.708;23.310;2022-11-18T06:16:18;171.77;;;26.90;;
16450;SDS011;12243;42.708;23.310;2022-11-18T06:18:48;175.03;;;27.23;;
16450;SDS011;12243;42.708;23.310;2022-11-18T06:21:15;126.00;;;24.77;;
16450;SDS011;12243;42.708;23.310;2022-11-18T06:23:42;125.60;;;23.90;;
16450;SDS011;12243;42.708;23.310;2022-11-18T06:26:11;137.33;;;23.00;;
16450;SDS011;12243;42.708;23.310;2022-11-18T06:28:40;68.33;;;17.00;;
16450;SDS011;12243;42.708;23.310;2022-11-18T06:31:09;184.80;;;18.13;;
16450;SDS011;12243;42.708;23.310;2022-11-18T06:33:37;94.37;;;17.27;;
16450;SDS011;12243;42.708;23.310;2022-11-18T06:36:04;150.10;;;18.20;;
16450;SDS011;12243;42.708;23.310;2022-11-18T06:38:31;104.37;;;16.73;;
16450;SDS011;12243;42.708;23.310;2022-11-18T06:40:59;60.30;;;18.57;;
16450;SDS011;12243;42.708;23.310;2022-11-18T06:43:26;151.80;;;20.40;;
16450;SDS011;12243;42.708;23.310;2022-11-18T06:46:07;158.67;;;28.50;;
16450;SDS011;12243;42.708;23.310;2022-11-18T06:48:54;69.40;;;19.77;;
16450;SDS011;12243;42.708;23.310;2022-11-18T06:51:21;136.63;;;21.70;;
16450;SDS011;12243;42.708;23.310;2022-11-18T06:53:48;312.97;;;48.23;;
16450;SDS011;12243;42.708;23.310;2022-11-18T06:56:16;168.10;;;42.47;;
16450;SDS011;12243;42.708;23.310;2022-11-18T06:58:45;122.23;;;32.17;;
16450;SDS011;12243;42.708;23.310;2022-11-18T07:01:12;72.27;;;23.13;;
16450;SDS011;12243;42.708;23.310;2022-11-18T07:03:41;72.23;;;17.37;;
16450;SDS011;12243;42.708;23.310;2022-11-18T07:06:11;73.70;;;16.80;;
16450;SDS011;12243;42.708;23.310;2022-11-18T07:08:39;55.23;;;17.57;;
16450;SDS011;12243;42.708;23.310;2022-11-18T07:11:07;114.33;;;17.43;;
16450;SDS011;12243;42.708;23.310;2022-11-18T07:13:36;108.43;;;18.67;;
16450;SDS011;12243;42.708;23.310;2022-11-18T07:16:04;86.70;;;18.80;;
16450;SDS011;12243;42.708;23.310;2022-11-18T07:18:32;77.93;;;22.80;;
16450;SDS011;12243;42.708;23.310;2022-11-18T07:21:01;108.73;;;43.40;;
16450;SDS011;12243;42.708;23.310;2022-11-18T07:23:31;79.13;;;22.10;;
16450;SDS011;12243;42.708;23.310;2022-11-18T07:25:59;63.23;;;23.50;;
16450;SDS011;12243;42.708;23.310;2022-11-18T07:28:27;62.60;;;20.70;;
16450;SDS011;12243;42.708;23.310;2022-11-18T07:30:59;175.03;;;78.57;;
16450;SDS011;12243;42.708;23.310;2022-11-18T07:33:27;78.43;;;28.60;;
16450;SDS011;12243;42.708;23.310;2022-11-18T07:35:54;83.50;;;23.40;;
16450;SDS011;12243;42.708;23.310;2022-11-18T07:38:22;72.80;;;21.97;;
16450;SDS011;12243;42.708;23.310;2022-11-18T07:40:50;72.37;;;22.47;;
16450;SDS011;12243;42.708;23.310;2022-11-18T07:43:17;65.40;;;22.93;;
16450;SDS011;12243;42.708;23.310;2022-11-18T07:45:43;65.00;;;22.33;;
16450;SDS011;12243;42.708;23.310;2022-11-18T07:48:10;104.70;;;21.97;;
16450;SDS011;12243;42.708;23.310;2022-11-18T07:50:37;129.10;;;21.07;;
16450;SDS011;12243;42.708;23.310;2022-11-18T07:53:04;111.70;;;21.37;;
16450;SDS011;12243;42.708;23.310;2022-11-18T07:55:31;110.63;;;19.77;;
16450;SDS011;12243;42.708;23.310;2022-11-18T07:57:59;100.10;;;21.63;;
16450;SDS011;12243;42.708;23.310;2022-11-18T08:00:26;62.77;;;18.87;;
16450;SDS011;12243;42.708;23.310;2022-11-18T08:02:53;59.30;;;19.00;;
16450;SDS011;12243;42.708;23.310;2022-11-18T08:05:20;65.63;;;19.83;;
16450;SDS011;12243;42.708;23.310;2022-11-18T08:07:47;56.20;;;20.17;;
16450;SDS011;12243;42.708;23.310;2022-11-18T08:10:14;121.40;;;19.30;;
16450;SDS011;12243;42.708;23.310;2022-11-18T08:12:42;134.73;;;20.67;;
16450;SDS011;12243;42.708;23.310;2022-11-18T08:15:10;69.60;;;19.97;;
16450;SDS011;12243;42.708;23.310;2022-11-18T08:17:38;41.90;;;22.10;;
16450;SDS011;12243;42.708;23.310;2022-11-18T08:20:05;44.30;;;21.60;;
16450;SDS011;12243;42.708;23.310;2022-11-18T08:22:33;45.40;;;22.93;;
16450;SDS011;12243;42.708;23.310;2022-11-18T08:25:00;73.27;;;23.10;;
16450;SDS011;12243;42.708;23.310;2022-11-18T08:27:26;78.93;;;26.67;;
16450;SDS011;12243;42.708;23.310;2022-11-18T08:29:53;63.30;;;26.07;;
16450;SDS011;12243;42.708;23.310;2022-11-18T08:32:22;44.67;;;26.37;;
16450;SDS011;12243;42.708;23.310;2022-11-18T08:34:49;52.77;;;26.87;;
16450;SDS011;12243;42.708;23.310;2022-11-18T08:37:16;43.67;;;26.63;;
16450;SDS011;12243;42.708;23.310;2022-11-18T08:39:43;54.87;;;28.73;;
16450;SDS011;12243;42.708;23.310;2022-11-18T08:42:10;51.47;;;28.50;;
16450;SDS011;12243;42.708;23.310;2022-11-18T08:44:37;51.43;;;28.30;;
16450;SDS011;12243;42.708;23.310;2022-11-18T08:47:04;57.27;;;29.37;;
16450;SDS011;12243;42.708;23.310;2022-11-18T08:49:32;53.90;;;28.60;;
16450;SDS011;12243;42.708;23.310;2022-11-18T08:51:59;62.03;;;32.47;;
16450;SDS011;12243;42.708;23.310;2022-11-18T08:54:26;57.87;;;31.67;;
16450;SDS011;12243;42.708;23.310;2022-11-18T08:56:53;58.63;;;31.73;;
16450;SDS011;12243;42.708;23.310;2022-11-18T08:59:20;55.30;;;31.90;;
16450;SDS011;12243;42.708;23.310;2022-11-18T09:01:47;59.27;;;33.30;;
16450;SDS011;12243;42.708;23.310;2022-11-18T09:04:14;56.17;;;31.20;;
16450;SDS011;12243;42.708;23.310;2022-11-18T09:06:43;63.40;;;32.07;;
16450;SDS011;12243;42.708;23.310;2022-11-18T09:09:10;65.17;;;33.57;;
16450;SDS011;12243;42.708;23.310;2022-11-18T09:11:37;70.00;;;33.57;;
16450;SDS011;12243;42.708;23.310;2022-11-18T09:14:04;58.77;;;30.97;;
16450;SDS011;12243;42.708;23.310;2022-11-18T09:16:32;54.43;;;31.10;;
16450;SDS011;12243;42.708;23.310;2022-11-18T09:19:01;66.13;;;33.40;;
16450;SDS011;12243;42.708;23.310;2022-11-18T09:21:28;63.27;;;36.13;;
16450;SDS011;12243;42.708;23.310;2022-11-18T09:23:57;65.43;;;34.13;;
16450;SDS011;12243;42.708;23.310;2022-11-18T09:26:24;61.63;;;35.37;;
16450;SDS011;12243;42.708;23.310;2022-11-18T09:28:52;72.67;;;37.43;;
16450;SDS011;12243;42.708;23.310;2022-11-18T09:31:20;73.53;;;38.17;;
16450;SDS011;12243;42.708;23.310;2022-11-18T09:33:47;73.70;;;39.07;;
16450;SDS011;12243;42.708;23.310;2022-11-18T09:36:16;80.43;;;40.60;;
16450;SDS011;12243;42.708;23.310;2022-11-18T09:38:44;75.50;;;39.63;;
16450;SDS011;12243;42.708;23.310;2022-11-18T09:44:17;70.03;;;37.53;;
16450;SDS011;12243;42.708;23.310;2022-11-18T09:46:58;73.87;;;38.87;;
16450;SDS011;12243;42.708;23.310;2022-11-18T09:49:33;82.30;;;40.57;;
16450;SDS011;12243;42.708;23.310;2022-11-18T09:52:02;73.23;;;39.73;;
16450;SDS011;12243;42.708;23.310;2022-11-18T09:54:32;68.70;;;36.53;;
16450;SDS011;12243;42.708;23.310;2022-11-18T09:57:02;62.00;;;36.07;;
16450;SDS011;12243;42.708;23.310;2022-11-18T09:59:35;59.57;;;34.83;;
16450;SDS011;12243;42.708;23.310;2022-11-18T10:02:03;68.97;;;36.27;;
16450;SDS011;12243;42.708;23.310;2022-11-18T10:04:47;62.07;;;35.00;;
16450;SDS011;12243;42.708;23.310;2022-11-18T10:07:15;55.33;;;31.87;;
16450;SDS011;12243;42.708;23.310;2022-11-18T10:09:48;54.13;;;32.20;;
16450;SDS011;12243;42.708;23.310;2022-11-18T10:12:21;60.33;;;33.03;;
16450;SDS011;12243;42.708;23.310;2022-11-18T10:15:02;52.53;;;30.97;;
16450;SDS011;12243;42.708;23.310;2022-11-18T10:17:43;52.43;;;31.07;;
16450;SDS011;12243;42.708;23.310;2022-11-18T10:20:22;53.63;;;31.23;;
16450;SDS011;12243;42.708;23.310;2022-11-18T10:22:57;57.50;;;32.13;;
16450;SDS011;12243;42.708;23.310;2022-11-18T10:25:33;51.27;;;32.43;;
16450;SDS011;12243;42.708;23.310;2022-11-18T10:28:13;55.23;;;34.17;;
16450;SDS011;12243;42.708;23.310;2022-11-18T10:30:43;54.50;;;33.87;;
16450;SDS011;12243;42.708;23.310;2022-11-18T10:33:17;54.07;;;35.17;;
16450;SDS011;12243;42.708;23.310;2022-11-18T10:35:50;49.40;;;32.23;;
16450;SDS011;12243;42.708;23.310;2022-11-18T10:38:34;52.17;;;34.10;;
16450;SDS011;12243;42.708;23.310;2022-11-18T10:41:02;49.30;;;30.93;;
16450;SDS011;12243;42.708;23.310;2022-11-18T10:43:43;51.67;;;33.30;;
16450;SDS011;12243;42.708;23.310;2022-11-18T10:46:17;46.07;;;33.57;;
16450;SDS011;12243;42.708;23.310;2022-11-18T10:49:00;50.70;;;33.07;;
16450;SDS011;12243;42.708;23.310;2022-11-18T10:51:38;50.60;;;35.10;;
16450;SDS011;12243;42.708;23.310;2022-11-18T10:54:07;50.03;;;35.37;;
16450;SDS011;12243;42.708;23.310;2022-11-18T10:56:46;48.30;;;33.43;;
16450;SDS011;12243;42.708;23.310;2022-11-18T10:59:19;47.50;;;31.37;;
16450;SDS011;12243;42.708;23.310;2022-11-18T11:02:02;45.73;;;31.10;;
16450;SDS011;12243;42.708;23.310;2022-11-18T11:04:41;50.57;;;34.37;;
16450;SDS011;12243;42.708;23.310;2022-11-18T11:07:14;57.40;;;36.50;;
16450;SDS011;12243;42.708;23.310;2022-11-18T11:09:42;58.40;;;36.23;;
16450;SDS011;12243;42.708;23.310;2022-11-18T11:12:12;49.60;;;34.27;;
16450;SDS011;12243;42.708;23.310;2022-11-18T11:14:44;56.03;;;35.60;;
16450;SDS011;12243;42.708;23.310;2022-11-18T11:17:17;44.50;;;30.65;;
16450;SDS011;12243;42.708;23.310;2022-11-18T11:19:50;37.85;;;27.52;;
16450;SDS011;12243;42.708;23.310;2022-11-18T11:22:28;45.03;;;26.88;;
16450;SDS011;12243;42.708;23.310;2022-11-18T11:24:56;39.60;;;25.38;;
16450;SDS011;12243;42.708;23.310;2022-11-18T11:27:31;44.63;;;25.40;;
16450;SDS011;12243;42.708;23.310;2022-11-18T11:30:09;38.88;;;25.70;;
16450;SDS011;12243;42.708;23.310;2022-11-18T11:33:00;44.10;;;26.45;;
16450;SDS011;12243;42.708;23.310;2022-11-18T11:35:41;35.00;;;26.27;;
16450;SDS011;12243;42.708;23.310;2022-11-18T11:38:16;33.30;;;25.13;;
16450;SDS011;12243;42.708;23.310;2022-11-18T11:40:54;33.53;;;26.92;;
16450;SDS011;12243;42.708;23.310;2022-11-18T11:43:33;35.42;;;28.92;;
16450;SDS011;12243;42.708;23.310;2022-11-18T11:46:11;32.22;;;26.70;;
16450;SDS011;12243;42.708;23.310;2022-11-18T11:48:55;34.40;;;24.88;;
16450;SDS011;12243;42.708;23.310;2022-11-18T11:51:30;32.47;;;25.40;;
16450;SDS011;12243;42.708;23.310;2022-11-18T11:54:05;30.75;;;23.45;;
16450;SDS011;12243;42.708;23.310;2022-11-18T11:56:43;36.58;;;24.35;;
16450;SDS011;12243;42.708;23.310;2022-11-18T11:59:16;37.53;;;25.77;;
16450;SDS011;12243;42.708;23.310;2022-11-18T12:01:56;38.10;;;25.67;;
16450;SDS011;12243;42.708;23.310;2022-11-18T12:04:33;38.73;;;26.37;;
16450;SDS011;12243;42.708;23.310;2022-11-18T12:07:05;37.17;;;27.13;;
16450;SDS011;12243;42.708;23.310;2022-11-18T12:09:43;34.93;;;26.77;;
16450;SDS011;12243;42.708;23.310;2022-11-18T12:12:20;37.13;;;25.97;;
16450;SDS011;12243;42.708;23.310;2022-11-18T12:15:03;34.40;;;26.50;;
16450;SDS011;12243;42.708;23.310;2022-11-18T12:17:51;38.53;;;26.97;;
16450;SDS011;12243;42.708;23.310;2022-11-18T12:20:34;35.80;;;25.23;;
16450;SDS011;12243;42.708;23.310;2022-11-18T12:23:09;36.83;;;24.20;;
16450;SDS011;12243;42.708;23.310;2022-11-18T12:26:00;34.47;;;24.27;;
16450;SDS011;12243;42.708;23.310;2022-11-18T12:28:30;28.83;;;19.23;;
16450;SDS011;12243;42.708;23.310;2022-11-18T12:34:02;23.07;;;17.77;;
16450;SDS011;12243;42.708;23.310;2022-11-18T12:36:42;25.03;;;18.90;;
16450;SDS011;12243;42.708;23.310;2022-11-18T12:42:33;28.47;;;17.83;;
16450;SDS011;12243;42.708;23.310;2022-11-18T12:57:00;29.43;;;18.13;;
16450;SDS011;12243;42.708;23.310;2022-11-18T12:59:30;23.73;;;16.57;;
16450;SDS011;12243;42.708;23.310;2022-11-18T13:05:02;21.43;;;15.63;;
16450;SDS011;12243;42.708;23.310;2022-11-18T13:07:37;20.30;;;11.80;;
16450;SDS011;12243;42.708;23.310;2022-11-18T13:10:25;33.37;;;23.50;;
16450;SDS011;12243;42.708;23.310;2022-11-18T13:12:54;26.37;;;15.67;;
16450;SDS011;12243;42.708;23.310;2022-11-18T13:15:22;21.73;;;12.33;;
16450;SDS011;12243;42.708;23.310;2022-11-18T13:18:09;20.83;;;14.10;;
16450;SDS011;12243;42.708;23.310;2022-11-18T13:20:38;57.72;;;16.70;;
16450;SDS011;12243;42.708;23.310;2022-11-18T13:23:22;29.57;;;12.93;;
16450;SDS011;12243;42.708;23.310;2022-11-18T13:26:11;16.67;;;7.90;;
16450;SDS011;12243;42.708;23.310;2022-11-18T13:28:56;18.47;;;9.63;;
16450;SDS011;12243;42.708;23.310;2022-11-18T13:31:34;12.33;;;8.17;;
16450;SDS011;12243;42.708;23.310;2022-11-18T13:34:10;25.10;;;8.17;;
16450;SDS011;12243;42.708;23.310;2022-11-18T13:36:42;12.15;;;5.65;;
16450;SDS011;12243;42.708;23.310;2022-11-18T13:39:17;8.73;;;3.58;;
16450;SDS011;12243;42.708;23.310;2022-11-18T13:41:56;23.50;;;14.65;;
16450;SDS011;12243;42.708;23.310;2022-11-18T13:44:25;24.70;;;17.00;;
16450;SDS011;12243;42.708;23.310;2022-11-18T13:46:55;15.33;;;9.57;;
16450;SDS011;12243;42.708;23.310;2022-11-18T13:49:32;10.53;;;8.23;;
16450;SDS011;12243;42.708;23.310;2022-11-18T13:52:13;19.65;;;11.48;;
16450;SDS011;12243;42.708;23.310;2022-11-18T13:54:45;20.70;;;15.00;;
16450;SDS011;12243;42.708;23.310;2022-11-18T13:57:15;21.23;;;14.40;;
16450;SDS011;12243;42.708;23.310;2022-11-18T13:59:45;20.37;;;12.60;;
16450;SDS011;12243;42.708;23.310;2022-11-18T14:02:14;18.40;;;11.70;;
16450;SDS011;12243;42.708;23.310;2022-11-18T14:04:53;19.50;;;13.23;;
16450;SDS011;12243;42.708;23.310;2022-11-18T14:07:27;11.13;;;9.70;;
16450;SDS011;12243;42.708;23.310;2022-11-18T14:09:57;19.70;;;12.80;;
16450;SDS011;12243;42.708;23.310;2022-11-18T14:12:26;20.97;;;12.60;;
16450;SDS011;12243;42.708;23.310;2022-11-18T14:15:13;24.87;;;14.17;;
16450;SDS011;12243;42.708;23.310;2022-11-18T14:17:50;19.20;;;10.80;;
16450;SDS011;12243;42.708;23.310;2022-11-18T14:20:19;17.03;;;10.57;;
16450;SDS011;12243;42.708;23.310;2022-11-18T14:22:47;13.87;;;10.17;;
16450;SDS011;12243;42.708;23.310;2022-11-18T14:25:19;16.63;;;9.60;;
16450;SDS011;12243;42.708;23.310;2022-11-18T14:27:50;16.93;;;11.00;;
16450;SDS011;12243;42.708;23.310;2022-11-18T14:30:25;17.83;;;10.60;;
16450;SDS011;12243;42.708;23.310;2022-11-18T14:33:14;15.67;;;10.30;;
16450;SDS011;12243;42.708;23.310;2022-11-18T14:35:44;15.23;;;10.70;;
16450;SDS011;12243;42.708;23.310;2022-11-18T14:38:15;12.83;;;9.93;;
16450;SDS011;12243;42.708;23.310;2022-11-18T14:40:45;7.90;;;6.57;;
16450;SDS011;12243;42.708;23.310;2022-11-18T14:43:12;21.70;;;9.80;;
16450;SDS011;12243;42.708;23.310;2022-11-18T14:45:39;20.17;;;11.63;;
16450;SDS011;12243;42.708;23.310;2022-11-18T14:48:08;11.73;;;6.67;;
16450;SDS011;12243;42.708;23.310;2022-11-18T14:50:37;6.83;;;5.87;;
16450;SDS011;12243;42.708;23.310;2022-11-18T14:53:04;6.80;;;5.23;;
16450;SDS011;12243;42.708;23.310;2022-11-18T14:55:31;3.20;;;2.90;;
16450;SDS011;12243;42.708;23.310;2022-11-18T14:58:00;8.07;;;4.63;;